Terminal Aerodrome Forecast
Issued by NWS Duluth, MN

Home | Current Version | Previous Version | Text Only | Print | Product List | Glossary On
Versions: 1 2 3 4 5 6 7 8 9 10 11 12 13 14 15 16 17 18 19 20 21 22 23 24 25 26 27
000
FTUS43 KDLH 222300
TAFINL
TAF
KINL 222338Z 2300/2324 02005KT P6SM SCT030 BKN060
      TEMPO 2300/2302 -SHRA BKN030 OVC045
     FM230500 VRB03KT P6SM BKN018 OVC025
     FM230700 00000KT 5SM BR BKN015
     FM231000 00000KT 3SM BR OVC008
      TEMPO 2310/2313 1SM BR OVC005
     FM231600 10005KT P6SM OVC015
     FM231900 10008KT P6SM BKN035=

USA.gov is the U.S. government's official web portal to all federal, state and local government web resources and services.